sensor_id;sensor_type;location;lat;lon;timestamp;temperature;humidity
19555;DHT22;9924;50.828;6.440;2023-07-28T00:02:11;17.10;99.90
19555;DHT22;9924;50.828;6.440;2023-07-28T00:04:37;17.10;99.90
19555;DHT22;9924;50.828;6.440;2023-07-28T00:07:03;17.10;99.90
19555;DHT22;9924;50.828;6.440;2023-07-28T00:09:32;17.10;99.90
19555;DHT22;9924;50.828;6.440;2023-07-28T00:11:59;17.10;99.90
19555;DHT22;9924;50.828;6.440;2023-07-28T00:14:25;17.10;99.90
19555;DHT22;9924;50.828;6.440;2023-07-28T00:16:55;17.10;99.90
19555;DHT22;9924;50.828;6.440;2023-07-28T00:19:21;17.10;99.90
19555;DHT22;9924;50.828;6.440;2023-07-28T00:21:48;17.10;99.90
19555;DHT22;9924;50.828;6.440;2023-07-28T00:24:14;17.20;99.90
19555;DHT22;9924;50.828;6.440;2023-07-28T00:26:40;17.20;99.90
19555;DHT22;9924;50.828;6.440;2023-07-28T00:29:06;17.20;99.90
19555;DHT22;9924;50.828;6.440;2023-07-28T00:31:33;17.20;99.90
19555;DHT22;9924;50.828;6.440;2023-07-28T00:33:59;17.20;99.90
19555;DHT22;9924;50.828;6.440;2023-07-28T00:36:24;17.30;99.90
19555;DHT22;9924;50.828;6.440;2023-07-28T00:38:50;17.30;99.90
19555;DHT22;9924;50.828;6.440;2023-07-28T00:41:16;17.30;99.90
19555;DHT22;9924;50.828;6.440;2023-07-28T00:43:42;17.30;99.90
19555;DHT22;9924;50.828;6.440;2023-07-28T00:46:09;17.40;99.90
19555;DHT22;9924;50.828;6.440;2023-07-28T00:48:35;17.40;99.90
19555;DHT22;9924;50.828;6.440;2023-07-28T00:51:01;17.40;99.90
19555;DHT22;9924;50.828;6.440;2023-07-28T00:53:29;17.40;99.90
19555;DHT22;9924;50.828;6.440;2023-07-28T00:55:55;17.40;99.90
19555;DHT22;9924;50.828;6.440;2023-07-28T00:58:21;17.40;99.90
19555;DHT22;9924;50.828;6.440;2023-07-28T01:00:47;17.50;99.90
19555;DHT22;9924;50.828;6.440;2023-07-28T01:03:14;17.50;99.90
19555;DHT22;9924;50.828;6.440;2023-07-28T01:05:57;17.50;99.90
19555;DHT22;9924;50.828;6.440;2023-07-28T01:08:32;17.50;99.90
19555;DHT22;9924;50.828;6.440;2023-07-28T01:10:59;17.50;99.90
19555;DHT22;9924;50.828;6.440;2023-07-28T01:13:25;17.40;99.90
19555;DHT22;9924;50.828;6.440;2023-07-28T01:15:51;17.50;99.90
19555;DHT22;9924;50.828;6.440;2023-07-28T01:18:17;17.50;99.90
19555;DHT22;9924;50.828;6.440;2023-07-28T01:20:43;17.50;99.90
19555;DHT22;9924;50.828;6.440;2023-07-28T01:23:59;17.50;99.90
19555;DHT22;9924;50.828;6.440;2023-07-28T01:26:36;17.50;99.90
19555;DHT22;9924;50.828;6.440;2023-07-28T01:29:05;17.50;99.90
19555;DHT22;9924;50.828;6.440;2023-07-28T01:31:32;17.50;99.90
19555;DHT22;9924;50.828;6.440;2023-07-28T01:33:58;17.50;99.90
19555;DHT22;9924;50.828;6.440;2023-07-28T01:36:23;17.50;99.90
19555;DHT22;9924;50.828;6.440;2023-07-28T01:38:49;17.60;99.90
19555;DHT22;9924;50.828;6.440;2023-07-28T01:41:15;17.60;99.90
19555;DHT22;9924;50.828;6.440;2023-07-28T01:43:41;17.60;99.90
19555;DHT22;9924;50.828;6.440;2023-07-28T01:46:08;17.60;99.90
19555;DHT22;9924;50.828;6.440;2023-07-28T01:48:34;17.60;99.90
19555;DHT22;9924;50.828;6.440;2023-07-28T01:51:00;17.50;99.90
19555;DHT22;9924;50.828;6.440;2023-07-28T01:53:27;17.60;99.90
19555;DHT22;9924;50.828;6.440;2023-07-28T01:55:52;17.60;99.90
19555;DHT22;9924;50.828;6.440;2023-07-28T01:58:18;17.60;99.90
19555;DHT22;9924;50.828;6.440;2023-07-28T02:00:44;17.60;99.90
19555;DHT22;9924;50.828;6.440;2023-07-28T02:03:11;17.60;99.90
19555;DHT22;9924;50.828;6.440;2023-07-28T02:05:37;17.60;99.90
19555;DHT22;9924;50.828;6.440;2023-07-28T02:08:03;17.70;99.90
19555;DHT22;9924;50.828;6.440;2023-07-28T02:10:29;17.70;99.90
19555;DHT22;9924;50.828;6.440;2023-07-28T02:12:55;17.60;99.90
19555;DHT22;9924;50.828;6.440;2023-07-28T02:15:21;17.70;99.90
19555;DHT22;9924;50.828;6.440;2023-07-28T02:17:46;17.70;99.90
19555;DHT22;9924;50.828;6.440;2023-07-28T02:20:12;17.70;99.90
19555;DHT22;9924;50.828;6.440;2023-07-28T02:22:39;17.70;99.90
19555;DHT22;9924;50.828;6.440;2023-07-28T02:25:06;17.70;99.90
19555;DHT22;9924;50.828;6.440;2023-07-28T02:27:31;17.70;99.90
19555;DHT22;9924;50.828;6.440;2023-07-28T02:29:57;17.70;99.90
19555;DHT22;9924;50.828;6.440;2023-07-28T02:32:23;17.70;99.90
19555;DHT22;9924;50.828;6.440;2023-07-28T02:34:49;17.70;99.90
19555;DHT22;9924;50.828;6.440;2023-07-28T02:37:15;17.70;99.90
19555;DHT22;9924;50.828;6.440;2023-07-28T02:39:41;17.70;99.90
19555;DHT22;9924;50.828;6.440;2023-07-28T02:42:07;17.70;99.90
19555;DHT22;9924;50.828;6.440;2023-07-28T02:44:33;17.70;99.90
19555;DHT22;9924;50.828;6.440;2023-07-28T02:46:58;17.70;99.90
19555;DHT22;9924;50.828;6.440;2023-07-28T02:49:24;17.70;99.90
19555;DHT22;9924;50.828;6.440;2023-07-28T02:51:50;17.70;99.90
19555;DHT22;9924;50.828;6.440;2023-07-28T02:54:15;17.70;99.90
19555;DHT22;9924;50.828;6.440;2023-07-28T02:56:41;17.70;99.90
19555;DHT22;9924;50.828;6.440;2023-07-28T02:59:07;17.70;99.90
19555;DHT22;9924;50.828;6.440;2023-07-28T03:01:32;17.70;99.90
19555;DHT22;9924;50.828;6.440;2023-07-28T03:04:02;17.70;99.90
19555;DHT22;9924;50.828;6.440;2023-07-28T03:06:28;17.70;99.90
19555;DHT22;9924;50.828;6.440;2023-07-28T03:08:54;17.70;99.90
19555;DHT22;9924;50.828;6.440;2023-07-28T03:11:20;17.70;99.90
19555;DHT22;9924;50.828;6.440;2023-07-28T03:13:45;17.70;99.90
19555;DHT22;9924;50.828;6.440;2023-07-28T03:16:11;17.80;99.90
19555;DHT22;9924;50.828;6.440;2023-07-28T03:18:37;17.70;99.90
19555;DHT22;9924;50.828;6.440;2023-07-28T03:21:03;17.80;99.90
19555;DHT22;9924;50.828;6.440;2023-07-28T03:23:29;17.80;99.90
19555;DHT22;9924;50.828;6.440;2023-07-28T03:25:54;17.80;99.90
19555;DHT22;9924;50.828;6.440;2023-07-28T03:28:20;17.80;99.90
19555;DHT22;9924;50.828;6.440;2023-07-28T03:30:46;17.80;99.90
19555;DHT22;9924;50.828;6.440;2023-07-28T03:33:12;17.70;99.90
19555;DHT22;9924;50.828;6.440;2023-07-28T03:35:37;17.70;99.90
19555;DHT22;9924;50.828;6.440;2023-07-28T03:38:03;17.70;99.90
19555;DHT22;9924;50.828;6.440;2023-07-28T03:40:29;17.70;99.90
19555;DHT22;9924;50.828;6.440;2023-07-28T03:42:55;17.70;99.90
19555;DHT22;9924;50.828;6.440;2023-07-28T03:45:20;17.70;99.90
19555;DHT22;9924;50.828;6.440;2023-07-28T03:47:46;17.70;99.90
19555;DHT22;9924;50.828;6.440;2023-07-28T03:50:12;17.70;99.90
19555;DHT22;9924;50.828;6.440;2023-07-28T03:52:38;17.70;99.90
19555;DHT22;9924;50.828;6.440;2023-07-28T03:55:03;17.70;99.90
19555;DHT22;9924;50.828;6.440;2023-07-28T03:57:29;17.70;99.90
19555;DHT22;9924;50.828;6.440;2023-07-28T03:59:55;17.70;99.90
19555;DHT22;9924;50.828;6.440;2023-07-28T04:02:21;17.70;99.90
19555;DHT22;9924;50.828;6.440;2023-07-28T04:04:46;17.70;99.90
19555;DHT22;9924;50.828;6.440;2023-07-28T04:07:12;17.60;99.90
19555;DHT22;9924;50.828;6.440;2023-07-28T04:09:38;17.60;99.90
19555;DHT22;9924;50.828;6.440;2023-07-28T04:12:04;17.60;99.90
19555;DHT22;9924;50.828;6.440;2023-07-28T04:14:30;17.60;99.90
19555;DHT22;9924;50.828;6.440;2023-07-28T04:16:55;17.60;99.90
19555;DHT22;9924;50.828;6.440;2023-07-28T04:19:21;17.60;99.90
19555;DHT22;9924;50.828;6.440;2023-07-28T04:21:47;17.60;99.90
19555;DHT22;9924;50.828;6.440;2023-07-28T04:24:12;17.70;99.90
19555;DHT22;9924;50.828;6.440;2023-07-28T04:26:38;17.70;99.90
19555;DHT22;9924;50.828;6.440;2023-07-28T04:29:04;17.70;99.90
19555;DHT22;9924;50.828;6.440;2023-07-28T04:31:30;17.70;99.90
19555;DHT22;9924;50.828;6.440;2023-07-28T04:33:55;17.70;99.90
19555;DHT22;9924;50.828;6.440;2023-07-28T04:36:21;17.70;99.90
19555;DHT22;9924;50.828;6.440;2023-07-28T04:38:46;17.70;99.90
19555;DHT22;9924;50.828;6.440;2023-07-28T04:41:12;17.70;99.90
19555;DHT22;9924;50.828;6.440;2023-07-28T04:43:38;17.70;99.90
19555;DHT22;9924;50.828;6.440;2023-07-28T04:46:03;17.80;99.90
19555;DHT22;9924;50.828;6.440;2023-07-28T04:48:29;17.80;99.90
19555;DHT22;9924;50.828;6.440;2023-07-28T04:50:55;17.80;99.90
19555;DHT22;9924;50.828;6.440;2023-07-28T04:53:20;17.80;99.90
19555;DHT22;9924;50.828;6.440;2023-07-28T04:55:46;17.90;99.90
19555;DHT22;9924;50.828;6.440;2023-07-28T04:58:12;17.80;99.90
19555;DHT22;9924;50.828;6.440;2023-07-28T05:00:37;17.90;99.90
19555;DHT22;9924;50.828;6.440;2023-07-28T05:03:03;17.90;99.90
19555;DHT22;9924;50.828;6.440;2023-07-28T05:05:29;17.90;99.90
19555;DHT22;9924;50.828;6.440;2023-07-28T05:07:55;17.90;99.90
19555;DHT22;9924;50.828;6.440;2023-07-28T05:10:21;17.90;99.90
19555;DHT22;9924;50.828;6.440;2023-07-28T05:12:46;17.90;99.90
19555;DHT22;9924;50.828;6.440;2023-07-28T05:15:14;17.90;99.90
19555;DHT22;9924;50.828;6.440;2023-07-28T05:17:40;17.90;99.90
19555;DHT22;9924;50.828;6.440;2023-07-28T05:20:06;17.90;99.90
19555;DHT22;9924;50.828;6.440;2023-07-28T05:22:32;17.90;99.90
19555;DHT22;9924;50.828;6.440;2023-07-28T05:24:58;17.90;99.90
19555;DHT22;9924;50.828;6.440;2023-07-28T05:27:24;18.00;99.90
19555;DHT22;9924;50.828;6.440;2023-07-28T05:29:50;18.10;99.90
19555;DHT22;9924;50.828;6.440;2023-07-28T05:32:16;18.10;99.90
19555;DHT22;9924;50.828;6.440;2023-07-28T05:34:44;18.20;99.90
19555;DHT22;9924;50.828;6.440;2023-07-28T05:37:10;18.20;99.90
19555;DHT22;9924;50.828;6.440;2023-07-28T05:39:36;18.30;99.90
19555;DHT22;9924;50.828;6.440;2023-07-28T05:42:02;18.30;99.90
19555;DHT22;9924;50.828;6.440;2023-07-28T05:44:28;18.30;99.90
19555;DHT22;9924;50.828;6.440;2023-07-28T05:46:54;18.30;99.90
19555;DHT22;9924;50.828;6.440;2023-07-28T05:49:20;18.40;99.90
19555;DHT22;9924;50.828;6.440;2023-07-28T05:51:46;18.40;99.90
19555;DHT22;9924;50.828;6.440;2023-07-28T05:54:14;18.40;99.90
19555;DHT22;9924;50.828;6.440;2023-07-28T05:56:40;18.40;99.90
19555;DHT22;9924;50.828;6.440;2023-07-28T05:59:06;18.50;99.90
19555;DHT22;9924;50.828;6.440;2023-07-28T06:01:32;18.50;99.90
19555;DHT22;9924;50.828;6.440;2023-07-28T06:03:58;18.50;99.90
19555;DHT22;9924;50.828;6.440;2023-07-28T06:06:27;18.50;99.90
19555;DHT22;9924;50.828;6.440;2023-07-28T06:08:53;18.40;99.90
19555;DHT22;9924;50.828;6.440;2023-07-28T06:11:20;18.40;99.90
19555;DHT22;9924;50.828;6.440;2023-07-28T06:13:45;18.40;99.90
19555;DHT22;9924;50.828;6.440;2023-07-28T06:16:15;18.50;99.90
19555;DHT22;9924;50.828;6.440;2023-07-28T06:18:41;18.50;99.90
19555;DHT22;9924;50.828;6.440;2023-07-28T06:21:07;18.50;99.90
19555;DHT22;9924;50.828;6.440;2023-07-28T06:23:32;18.60;99.90
19555;DHT22;9924;50.828;6.440;2023-07-28T06:25:58;18.70;99.90
19555;DHT22;9924;50.828;6.440;2023-07-28T06:28:24;18.70;99.90
19555;DHT22;9924;50.828;6.440;2023-07-28T06:30:56;18.80;99.90
19555;DHT22;9924;50.828;6.440;2023-07-28T06:33:23;18.80;99.90
19555;DHT22;9924;50.828;6.440;2023-07-28T06:35:49;18.80;99.90
19555;DHT22;9924;50.828;6.440;2023-07-28T06:38:15;18.80;99.90
19555;DHT22;9924;50.828;6.440;2023-07-28T06:40:40;18.90;99.90
19555;DHT22;9924;50.828;6.440;2023-07-28T06:43:06;18.90;99.90
19555;DHT22;9924;50.828;6.440;2023-07-28T06:45:33;19.00;99.90
19555;DHT22;9924;50.828;6.440;2023-07-28T06:47:59;19.00;99.90
19555;DHT22;9924;50.828;6.440;2023-07-28T06:50:25;19.10;99.90
19555;DHT22;9924;50.828;6.440;2023-07-28T06:52:50;19.10;99.90
19555;DHT22;9924;50.828;6.440;2023-07-28T06:55:17;19.10;99.90
19555;DHT22;9924;50.828;6.440;2023-07-28T06:57:44;19.10;99.90
19555;DHT22;9924;50.828;6.440;2023-07-28T07:00:10;19.20;99.90
19555;DHT22;9924;50.828;6.440;2023-07-28T07:02:36;19.20;99.90
19555;DHT22;9924;50.828;6.440;2023-07-28T07:05:02;19.20;99.90
19555;DHT22;9924;50.828;6.440;2023-07-28T07:07:28;19.30;99.90
19555;DHT22;9924;50.828;6.440;2023-07-28T07:09:53;19.30;99.90
19555;DHT22;9924;50.828;6.440;2023-07-28T07:12:19;19.30;99.90
19555;DHT22;9924;50.828;6.440;2023-07-28T07:14:47;19.30;99.90
19555;DHT22;9924;50.828;6.440;2023-07-28T07:17:12;19.30;99.90
19555;DHT22;9924;50.828;6.440;2023-07-28T07:19:38;19.30;99.90
19555;DHT22;9924;50.828;6.440;2023-07-28T07:22:07;19.40;99.90
19555;DHT22;9924;50.828;6.440;2023-07-28T07:24:33;19.50;99.90
19555;DHT22;9924;50.828;6.440;2023-07-28T07:26:58;19.50;99.90
19555;DHT22;9924;50.828;6.440;2023-07-28T07:29:24;19.60;99.90
19555;DHT22;9924;50.828;6.440;2023-07-28T07:31:50;19.70;99.90
19555;DHT22;9924;50.828;6.440;2023-07-28T07:34:20;19.80;99.90
19555;DHT22;9924;50.828;6.440;2023-07-28T07:36:47;19.90;99.90
19555;DHT22;9924;50.828;6.440;2023-07-28T07:39:13;19.90;99.90
19555;DHT22;9924;50.828;6.440;2023-07-28T07:41:39;19.80;99.90
19555;DHT22;9924;50.828;6.440;2023-07-28T07:44:05;19.70;99.90
19555;DHT22;9924;50.828;6.440;2023-07-28T07:46:30;19.70;99.90
19555;DHT22;9924;50.828;6.440;2023-07-28T07:48:56;19.70;99.90
19555;DHT22;9924;50.828;6.440;2023-07-28T07:51:22;19.80;99.90
19555;DHT22;9924;50.828;6.440;2023-07-28T07:53:47;19.90;99.90
19555;DHT22;9924;50.828;6.440;2023-07-28T07:56:13;19.90;99.90
19555;DHT22;9924;50.828;6.440;2023-07-28T07:58:39;19.90;99.90
19555;DHT22;9924;50.828;6.440;2023-07-28T08:01:05;19.80;99.90
19555;DHT22;9924;50.828;6.440;2023-07-28T08:03:31;20.00;99.90
19555;DHT22;9924;50.828;6.440;2023-07-28T08:05:57;20.30;99.90
19555;DHT22;9924;50.828;6.440;2023-07-28T08:08:23;20.50;99.90
19555;DHT22;9924;50.828;6.440;2023-07-28T08:10:50;20.70;99.90
19555;DHT22;9924;50.828;6.440;2023-07-28T08:13:16;20.90;99.90
19555;DHT22;9924;50.828;6.440;2023-07-28T08:15:45;21.10;99.90
19555;DHT22;9924;50.828;6.440;2023-07-28T08:18:14;21.20;99.90
19555;DHT22;9924;50.828;6.440;2023-07-28T08:20:40;21.10;99.90
19555;DHT22;9924;50.828;6.440;2023-07-28T08:23:06;21.00;99.90
19555;DHT22;9924;50.828;6.440;2023-07-28T08:25:32;21.00;99.90
19555;DHT22;9924;50.828;6.440;2023-07-28T08:28:00;21.00;99.90
19555;DHT22;9924;50.828;6.440;2023-07-28T08:30:26;21.00;99.90
19555;DHT22;9924;50.828;6.440;2023-07-28T08:32:52;21.30;99.90
19555;DHT22;9924;50.828;6.440;2023-07-28T08:35:17;21.50;99.90
19555;DHT22;9924;50.828;6.440;2023-07-28T08:37:43;22.00;99.90
19555;DHT22;9924;50.828;6.440;2023-07-28T08:40:10;22.10;99.90
19555;DHT22;9924;50.828;6.440;2023-07-28T08:42:37;22.40;99.90
19555;DHT22;9924;50.828;6.440;2023-07-28T08:45:04;22.50;99.90
19555;DHT22;9924;50.828;6.440;2023-07-28T08:47:31;22.50;99.90
19555;DHT22;9924;50.828;6.440;2023-07-28T08:49:57;22.30;99.90
19555;DHT22;9924;50.828;6.440;2023-07-28T08:52:23;22.30;99.90
19555;DHT22;9924;50.828;6.440;2023-07-28T08:54:52;22.40;99.90
19555;DHT22;9924;50.828;6.440;2023-07-28T08:57:17;22.60;99.90
19555;DHT22;9924;50.828;6.440;2023-07-28T08:59:45;22.60;99.90
19555;DHT22;9924;50.828;6.440;2023-07-28T09:02:18;22.50;99.90
19555;DHT22;9924;50.828;6.440;2023-07-28T09:04:48;22.50;99.90
19555;DHT22;9924;50.828;6.440;2023-07-28T09:07:14;22.60;99.90
19555;DHT22;9924;50.828;6.440;2023-07-28T09:09:40;22.60;99.90
19555;DHT22;9924;50.828;6.440;2023-07-28T09:12:07;22.60;99.90
19555;DHT22;9924;50.828;6.440;2023-07-28T09:14:35;22.50;99.90
19555;DHT22;9924;50.828;6.440;2023-07-28T09:17:09;22.60;99.90
19555;DHT22;9924;50.828;6.440;2023-07-28T09:19:35;22.60;99.90
19555;DHT22;9924;50.828;6.440;2023-07-28T09:22:14;22.80;99.90
19555;DHT22;9924;50.828;6.440;2023-07-28T09:24:39;22.90;99.90
19555;DHT22;9924;50.828;6.440;2023-07-28T09:27:05;22.80;99.90
19555;DHT22;9924;50.828;6.440;2023-07-28T09:29:31;22.80;99.90
19555;DHT22;9924;50.828;6.440;2023-07-28T09:32:05;22.80;99.90
19555;DHT22;9924;50.828;6.440;2023-07-28T09:34:31;22.90;99.90
19555;DHT22;9924;50.828;6.440;2023-07-28T09:36:59;22.90;99.90
19555;DHT22;9924;50.828;6.440;2023-07-28T09:39:25;22.90;99.90
19555;DHT22;9924;50.828;6.440;2023-07-28T09:41:51;22.70;99.90
19555;DHT22;9924;50.828;6.440;2023-07-28T09:44:17;22.50;99.90
19555;DHT22;9924;50.828;6.440;2023-07-28T09:46:56;22.70;99.90
19555;DHT22;9924;50.828;6.440;2023-07-28T09:49:28;23.10;99.90
19555;DHT22;9924;50.828;6.440;2023-07-28T09:51:57;23.40;99.90
19555;DHT22;9924;50.828;6.440;2023-07-28T09:54:25;23.60;99.90
19555;DHT22;9924;50.828;6.440;2023-07-28T09:56:58;23.70;99.90
19555;DHT22;9924;50.828;6.440;2023-07-28T09:59:29;23.70;99.90
19555;DHT22;9924;50.828;6.440;2023-07-28T10:01:58;23.70;99.90
19555;DHT22;9924;50.828;6.440;2023-07-28T10:04:27;23.90;99.90
19555;DHT22;9924;50.828;6.440;2023-07-28T10:06:53;23.90;99.90
19555;DHT22;9924;50.828;6.440;2023-07-28T10:09:24;23.80;99.90
19555;DHT22;9924;50.828;6.440;2023-07-28T10:11:50;23.80;99.90
19555;DHT22;9924;50.828;6.440;2023-07-28T10:14:30;23.80;99.90
19555;DHT22;9924;50.828;6.440;2023-07-28T10:16:59;23.50;99.90
19555;DHT22;9924;50.828;6.440;2023-07-28T10:19:28;23.40;99.90
19555;DHT22;9924;50.828;6.440;2023-07-28T10:22:00;23.50;99.90
19555;DHT22;9924;50.828;6.440;2023-07-28T10:24:55;23.50;99.90
19555;DHT22;9924;50.828;6.440;2023-07-28T10:27:45;23.40;99.90
19555;DHT22;9924;50.828;6.440;2023-07-28T10:30:13;23.30;99.90
19555;DHT22;9924;50.828;6.440;2023-07-28T10:32:41;23.00;99.90
19555;DHT22;9924;50.828;6.440;2023-07-28T10:35:27;23.10;99.90
19555;DHT22;9924;50.828;6.440;2023-07-28T10:37:54;23.20;99.90
19555;DHT22;9924;50.828;6.440;2023-07-28T10:40:34;23.40;99.90
19555;DHT22;9924;50.828;6.440;2023-07-28T10:43:04;23.70;99.90
19555;DHT22;9924;50.828;6.440;2023-07-28T10:45:31;23.90;99.90
19555;DHT22;9924;50.828;6.440;2023-07-28T10:47:58;23.90;99.90
19555;DHT22;9924;50.828;6.440;2023-07-28T10:50:31;23.80;99.90
19555;DHT22;9924;50.828;6.440;2023-07-28T10:52:57;23.90;99.90
19555;DHT22;9924;50.828;6.440;2023-07-28T10:55:25;23.60;99.90
19555;DHT22;9924;50.828;6.440;2023-07-28T10:57:52;23.70;99.90
19555;DHT22;9924;50.828;6.440;2023-07-28T11:00:20;24.10;99.90
19555;DHT22;9924;50.828;6.440;2023-07-28T11:02:51;24.50;99.90
19555;DHT22;9924;50.828;6.440;2023-07-28T11:05:26;24.80;99.90
19555;DHT22;9924;50.828;6.440;2023-07-28T11:08:00;24.80;99.90
19555;DHT22;9924;50.828;6.440;2023-07-28T11:10:31;24.70;99.90
19555;DHT22;9924;50.828;6.440;2023-07-28T11:13:02;24.70;99.90
19555;DHT22;9924;50.828;6.440;2023-07-28T11:15:28;24.70;99.90
19555;DHT22;9924;50.828;6.440;2023-07-28T11:17:54;24.80;99.90
19555;DHT22;9924;50.828;6.440;2023-07-28T11:20:22;24.90;99.90
19555;DHT22;9924;50.828;6.440;2023-07-28T11:23:01;25.10;99.90
19555;DHT22;9924;50.828;6.440;2023-07-28T11:25:30;25.50;99.90
19555;DHT22;9924;50.828;6.440;2023-07-28T11:27:56;25.80;99.90
19555;DHT22;9924;50.828;6.440;2023-07-28T11:30:23;25.90;99.90
19555;DHT22;9924;50.828;6.440;2023-07-28T11:32:52;26.20;99.90
19555;DHT22;9924;50.828;6.440;2023-07-28T11:35:20;26.50;99.90
19555;DHT22;9924;50.828;6.440;2023-07-28T11:37:49;26.40;99.90
19555;DHT22;9924;50.828;6.440;2023-07-28T11:40:17;26.20;99.90
19555;DHT22;9924;50.828;6.440;2023-07-28T11:42:54;26.00;99.90
19555;DHT22;9924;50.828;6.440;2023-07-28T11:45:21;25.80;99.90
19555;DHT22;9924;50.828;6.440;2023-07-28T11:48:00;25.50;99.90
19555;DHT22;9924;50.828;6.440;2023-07-28T11:50:40;25.40;99.90
19555;DHT22;9924;50.828;6.440;2023-07-28T11:53:07;25.20;99.90
19555;DHT22;9924;50.828;6.440;2023-07-28T11:55:35;24.80;99.90
19555;DHT22;9924;50.828;6.440;2023-07-28T11:58:01;24.40;99.90
19555;DHT22;9924;50.828;6.440;2023-07-28T12:00:34;24.10;99.90
19555;DHT22;9924;50.828;6.440;2023-07-28T12:03:08;24.10;99.90
19555;DHT22;9924;50.828;6.440;2023-07-28T12:05:41;24.00;99.90
19555;DHT22;9924;50.828;6.440;2023-07-28T12:08:38;23.90;99.90
19555;DHT22;9924;50.828;6.440;2023-07-28T12:11:04;24.00;99.90
19555;DHT22;9924;50.828;6.440;2023-07-28T12:13:30;24.00;99.90
19555;DHT22;9924;50.828;6.440;2023-07-28T12:15:56;24.20;99.90
19555;DHT22;9924;50.828;6.440;2023-07-28T12:18:21;24.40;99.90
19555;DHT22;9924;50.828;6.440;2023-07-28T12:20:51;24.50;99.90
19555;DHT22;9924;50.828;6.440;2023-07-28T12:23:21;24.50;99.90
19555;DHT22;9924;50.828;6.440;2023-07-28T12:25:47;24.50;99.90
19555;DHT22;9924;50.828;6.440;2023-07-28T12:28:14;24.60;99.90
19555;DHT22;9924;50.828;6.440;2023-07-28T12:30:39;24.50;99.90
19555;DHT22;9924;50.828;6.440;2023-07-28T12:33:06;24.50;99.90
19555;DHT22;9924;50.828;6.440;2023-07-28T12:35:33;24.60;99.90
19555;DHT22;9924;50.828;6.440;2023-07-28T12:38:01;24.50;99.90
19555;DHT22;9924;50.828;6.440;2023-07-28T12:40:30;24.60;99.90
19555;DHT22;9924;50.828;6.440;2023-07-28T12:42:57;24.60;99.90
19555;DHT22;9924;50.828;6.440;2023-07-28T12:45:23;24.40;99.90
19555;DHT22;9924;50.828;6.440;2023-07-28T12:47:54;24.10;99.90
19555;DHT22;9924;50.828;6.440;2023-07-28T12:50:23;23.80;99.90
19555;DHT22;9924;50.828;6.440;2023-07-28T12:52:50;23.60;99.90
19555;DHT22;9924;50.828;6.440;2023-07-28T12:55:17;23.60;99.90
19555;DHT22;9924;50.828;6.440;2023-07-28T12:57:43;23.60;99.90
19555;DHT22;9924;50.828;6.440;2023-07-28T13:00:09;23.80;99.90
19555;DHT22;9924;50.828;6.440;2023-07-28T13:02:42;23.90;99.90
19555;DHT22;9924;50.828;6.440;2023-07-28T13:05:09;23.90;99.90
19555;DHT22;9924;50.828;6.440;2023-07-28T13:07:36;23.90;99.90
19555;DHT22;9924;50.828;6.440;2023-07-28T13:10:02;23.70;99.90
19555;DHT22;9924;50.828;6.440;2023-07-28T13:12:29;23.50;99.90
19555;DHT22;9924;50.828;6.440;2023-07-28T13:14:58;23.50;99.90
19555;DHT22;9924;50.828;6.440;2023-07-28T13:17:23;23.50;99.90
19555;DHT22;9924;50.828;6.440;2023-07-28T13:19:49;23.50;99.90
19555;DHT22;9924;50.828;6.440;2023-07-28T13:22:15;23.70;99.90
19555;DHT22;9924;50.828;6.440;2023-07-28T13:24:41;24.10;99.90
19555;DHT22;9924;50.828;6.440;2023-07-28T13:27:07;24.60;99.90
19555;DHT22;9924;50.828;6.440;2023-07-28T13:29:33;24.80;99.90
19555;DHT22;9924;50.828;6.440;2023-07-28T13:31:59;24.80;99.90
19555;DHT22;9924;50.828;6.440;2023-07-28T13:34:27;24.80;99.90
19555;DHT22;9924;50.828;6.440;2023-07-28T13:36:53;24.90;99.90
19555;DHT22;9924;50.828;6.440;2023-07-28T13:39:19;25.00;99.90
19555;DHT22;9924;50.828;6.440;2023-07-28T13:41:45;25.00;99.90
19555;DHT22;9924;50.828;6.440;2023-07-28T13:44:11;25.30;99.90
19555;DHT22;9924;50.828;6.440;2023-07-28T13:46:36;25.40;99.90
19555;DHT22;9924;50.828;6.440;2023-07-28T13:49:02;25.40;99.90
19555;DHT22;9924;50.828;6.440;2023-07-28T13:51:28;25.40;99.90
19555;DHT22;9924;50.828;6.440;2023-07-28T13:53:54;25.10;99.90
19555;DHT22;9924;50.828;6.440;2023-07-28T13:56:20;24.80;99.90
19555;DHT22;9924;50.828;6.440;2023-07-28T13:58:46;24.60;99.90
19555;DHT22;9924;50.828;6.440;2023-07-28T14:01:12;24.70;99.90
19555;DHT22;9924;50.828;6.440;2023-07-28T14:03:37;24.90;99.90
19555;DHT22;9924;50.828;6.440;2023-07-28T14:06:03;25.10;99.90
19555;DHT22;9924;50.828;6.440;2023-07-28T14:08:29;25.00;99.90
19555;DHT22;9924;50.828;6.440;2023-07-28T14:10:55;24.80;99.90
19555;DHT22;9924;50.828;6.440;2023-07-28T14:13:20;24.70;99.90
19555;DHT22;9924;50.828;6.440;2023-07-28T14:15:47;24.60;99.90
19555;DHT22;9924;50.828;6.440;2023-07-28T14:18:13;24.60;99.90
19555;DHT22;9924;50.828;6.440;2023-07-28T14:20:40;24.80;99.90
19555;DHT22;9924;50.828;6.440;2023-07-28T14:23:25;25.00;99.90
19555;DHT22;9924;50.828;6.440;2023-07-28T14:25:51;25.40;99.90
19555;DHT22;9924;50.828;6.440;2023-07-28T14:28:17;25.50;99.90
19555;DHT22;9924;50.828;6.440;2023-07-28T14:30:43;25.80;99.90
19555;DHT22;9924;50.828;6.440;2023-07-28T14:33:13;26.40;99.90
19555;DHT22;9924;50.828;6.440;2023-07-28T14:35:39;26.60;99.90
19555;DHT22;9924;50.828;6.440;2023-07-28T14:38:06;26.70;99.90
19555;DHT22;9924;50.828;6.440;2023-07-28T14:40:32;26.50;99.90
19555;DHT22;9924;50.828;6.440;2023-07-28T14:42:58;26.20;99.90
19555;DHT22;9924;50.828;6.440;2023-07-28T14:45:23;25.80;99.90
19555;DHT22;9924;50.828;6.440;2023-07-28T14:47:49;25.60;99.90
19555;DHT22;9924;50.828;6.440;2023-07-28T14:50:14;25.30;99.90
19555;DHT22;9924;50.828;6.440;2023-07-28T14:52:43;25.40;99.90
19555;DHT22;9924;50.828;6.440;2023-07-28T14:55:09;25.50;99.90
19555;DHT22;9924;50.828;6.440;2023-07-28T14:57:35;25.60;99.90
19555;DHT22;9924;50.828;6.440;2023-07-28T15:00:01;25.90;99.90
19555;DHT22;9924;50.828;6.440;2023-07-28T15:02:27;26.00;99.90
19555;DHT22;9924;50.828;6.440;2023-07-28T15:04:52;25.60;99.90
19555;DHT22;9924;50.828;6.440;2023-07-28T15:07:18;25.40;99.90
19555;DHT22;9924;50.828;6.440;2023-07-28T15:09:45;25.40;99.90
19555;DHT22;9924;50.828;6.440;2023-07-28T15:12:10;25.20;99.90
19555;DHT22;9924;50.828;6.440;2023-07-28T15:14:36;24.60;99.90
19555;DHT22;9924;50.828;6.440;2023-07-28T15:17:01;23.90;99.90
19555;DHT22;9924;50.828;6.440;2023-07-28T15:19:27;23.60;99.90
19555;DHT22;9924;50.828;6.440;2023-07-28T15:21:53;23.30;99.90
19555;DHT22;9924;50.828;6.440;2023-07-28T15:24:18;23.20;99.90
19555;DHT22;9924;50.828;6.440;2023-07-28T15:26:46;22.90;99.90
19555;DHT22;9924;50.828;6.440;2023-07-28T15:29:13;22.80;99.90
19555;DHT22;9924;50.828;6.440;2023-07-28T15:31:39;22.60;99.90
19555;DHT22;9924;50.828;6.440;2023-07-28T15:34:04;22.70;99.90
19555;DHT22;9924;50.828;6.440;2023-07-28T15:36:30;22.60;99.90
19555;DHT22;9924;50.828;6.440;2023-07-28T15:38:56;22.60;99.90
19555;DHT22;9924;50.828;6.440;2023-07-28T15:41:23;22.60;99.90
19555;DHT22;9924;50.828;6.440;2023-07-28T15:43:49;22.60;99.90
19555;DHT22;9924;50.828;6.440;2023-07-28T15:46:15;22.70;99.90